Anderson Acres, Nevada
Current Conditions -  °F | °C
As of 2:15 AM on Tuesday 27 Jan 2015 (Local Time) from KRTS Reporting Station
Overcast Overcast  
Wind Chill: 37°   Ceiling: 10000
Heat Index: 37°   Visibility: 10mi
Dew Point: 27°   Wind: 3mph
Humidity: 65%   Direction: 360°N
Pressure: 30.08"   Gusts: NA
Location:  39.7378°N, 119.889°W
Report Text: KRTS 271015Z AUTO 36003KT 10SM OVC100 03/M03 A3008 RMK AO2
Loading
Personal Weather Stations






























Interactive Weather Map New forecast layout! Learn more

10-Day Weather Forecast

Advertisements
Track Severe Weather on mobile